Time;durP1;ratioP1;P1;durP2;ratioP2;P2;SDS_P1;SDS_P2;PMS_P1;PMS_P2;Temp;Humidity;BMP_temperature;BMP_pressure;BME280_temperature;BME280_humidity;BME280_pressure;Samples;Min_cycle;Max_cycle;Signal;HPM_P1;HPM_P2
2022/05/31 00:00:55;;;;;;;1.63;1.30;;;;;;;;;;2079464;28;20037;-86
2022/05/31 00:02:19;;;;;;;1.73;1.60;;;;;;;;;;2080298;28;20044;-85
2022/05/31 00:03:38;;;;;;;1.52;1.42;;;;;;;;;;2079659;28;20072;-86
2022/05/31 00:04:57;;;;;;;1.38;1.27;;;;;;;;;;2075550;28;20041;-86
2022/05/31 00:06:16;;;;;;;2.88;1.40;;;;;;;;;;2077191;28;20025;-85
2022/05/31 00:07:34;;;;;;;1.70;1.60;;;;;;;;;;2083353;28;20037;-85
2022/05/31 00:08:53;;;;;;;1.65;1.55;;;;;;;;;;2080483;28;20026;-85
2022/05/31 00:10:13;;;;;;;1.52;1.42;;;;;;;;;;2078650;28;20515;-86
2022/05/31 00:11:32;;;;;;;1.70;1.60;;;;;;;;;;2077387;28;20038;-86
2022/05/31 00:12:51;;;;;;;1.55;1.45;;;;;;;;;;2075762;28;20033;-85
2022/05/31 00:14:11;;;;;;;1.50;1.40;;;;;;;;;;2076323;28;20029;-84
2022/05/31 00:15:30;;;;;;;1.63;1.52;;;;;;;;;;2076654;28;20037;-84
2022/05/31 00:16:49;;;;;;;1.65;1.55;;;;;;;;;;2077288;28;20097;-85
2022/05/31 00:18:08;;;;;;;1.65;1.50;;;;;;;;;;2077368;28;20025;-84
2022/05/31 00:19:27;;;;;;;1.90;1.80;;;;;;;;;;2074831;28;20033;-83
2022/05/31 00:20:47;;;;;;;1.70;1.60;;;;;;;;;;2076068;28;20128;-85
2022/05/31 00:22:11;;;;;;;2.65;1.55;;;;;;;;;;2078700;28;20395;-83
2022/05/31 00:23:30;;;;;;;2.53;1.48;;;;;;;;;;2079065;28;20037;-85
2022/05/31 00:24:50;;;;;;;1.83;1.73;;;;;;;;;;2078347;28;20034;-86
2022/05/31 00:26:09;;;;;;;3.78;3.42;;;;;;;;;;2077378;28;20025;-85
2022/05/31 00:27:28;;;;;;;1.70;1.60;;;;;;;;;;2084510;28;20048;-86
2022/05/31 00:28:47;;;;;;;2.78;2.20;;;;;;;;;;2076996;28;20025;-86
2022/05/31 00:30:06;;;;;;;2.45;1.80;;;;;;;;;;2076353;28;20037;-87
2022/05/31 00:31:25;;;;;;;2.38;2.17;;;;;;;;;;2076775;28;20025;-83
2022/05/31 00:32:46;;;;;;;2.13;2.03;;;;;;;;;;2085623;28;20026;-84
2022/05/31 00:34:06;;;;;;;1.63;1.52;;;;;;;;;;2078730;28;20034;-86
2022/05/31 00:35:27;;;;;;;2.80;1.67;;;;;;;;;;2079739;28;20033;-85
2022/05/31 00:36:47;;;;;;;1.80;1.48;;;;;;;;;;2076325;28;20033;-85
2022/05/31 00:38:07;;;;;;;3.72;1.70;;;;;;;;;;2077163;28;20030;-85
2022/05/31 00:39:26;;;;;;;1.50;1.40;;;;;;;;;;2077150;28;20030;-86
2022/05/31 00:40:45;;;;;;;1.63;1.50;;;;;;;;;;2078901;28;20499;-87
2022/05/31 00:42:06;;;;;;;2.78;1.85;;;;;;;;;;2078329;28;20112;-85
2022/05/31 00:43:25;;;;;;;1.60;1.50;;;;;;;;;;2079571;28;20025;-86
2022/05/31 00:44:44;;;;;;;2.17;1.75;;;;;;;;;;2082725;28;20092;-86
2022/05/31 00:46:03;;;;;;;1.83;1.63;;;;;;;;;;2076643;28;20025;-86
2022/05/31 00:47:27;;;;;;;2.60;1.70;;;;;;;;;;2077640;28;20104;-87
2022/05/31 00:48:53;;;;;;;2.85;2.65;;;;;;;;;;2080790;28;20140;-86
2022/05/31 00:50:25;;;;;;;2.58;1.60;;;;;;;;;;2082465;28;20060;-86
2022/05/31 00:51:46;;;;;;;2.58;1.75;;;;;;;;;;2078028;28;21001;-85
2022/05/31 00:53:07;;;;;;;1.60;1.50;;;;;;;;;;2075582;28;20495;-85
2022/05/31 00:54:27;;;;;;;1.77;1.67;;;;;;;;;;2076166;28;20446;-85
2022/05/31 00:55:48;;;;;;;1.85;1.75;;;;;;;;;;2077880;28;20484;-86
2022/05/31 00:57:07;;;;;;;2.00;1.90;;;;;;;;;;2076770;28;20438;-86
2022/05/31 00:58:29;;;;;;;1.70;1.60;;;;;;;;;;2076810;28;20030;-86
2022/05/31 01:00:03;;;;;;;1.63;1.52;;;;;;;;;;2079233;28;20041;-86
2022/05/31 01:01:23;;;;;;;2.03;1.45;;;;;;;;;;2075464;28;20403;-86
2022/05/31 01:02:42;;;;;;;1.80;1.70;;;;;;;;;;2083684;28;20037;-86
2022/05/31 01:04:01;;;;;;;1.83;1.73;;;;;;;;;;2074661;28;20426;-85
2022/05/31 01:05:20;;;;;;;1.88;1.77;;;;;;;;;;2077630;28;20030;-85
2022/05/31 01:06:39;;;;;;;1.58;1.52;;;;;;;;;;2083499;28;20025;-86
2022/05/31 01:07:58;;;;;;;1.83;1.73;;;;;;;;;;2080341;28;20105;-86
2022/05/31 01:09:17;;;;;;;1.80;1.70;;;;;;;;;;2077102;28;20022;-86
2022/05/31 01:10:36;;;;;;;1.70;1.60;;;;;;;;;;2075695;28;20046;-86
2022/05/31 01:11:56;;;;;;;1.92;1.83;;;;;;;;;;2076869;28;20030;-86
2022/05/31 01:13:16;;;;;;;1.70;1.60;;;;;;;;;;2076768;28;20030;-86
2022/05/31 01:14:38;;;;;;;1.85;1.75;;;;;;;;;;2084836;28;20041;-85
2022/05/31 01:16:05;;;;;;;1.90;1.80;;;;;;;;;;2076760;28;20025;-86
2022/05/31 01:17:25;;;;;;;3.03;1.88;;;;;;;;;;2074735;28;20049;-86
2022/05/31 01:18:44;;;;;;;1.80;1.70;;;;;;;;;;2082845;28;20041;-85
2022/05/31 01:20:21;;;;;;;1.75;1.65;;;;;;;;;;2079989;28;20034;-85
2022/05/31 01:21:40;;;;;;;1.98;1.88;;;;;;;;;;2077104;28;20104;-85
2022/05/31 01:23:11;;;;;;;1.80;1.70;;;;;;;;;;2087360;28;20020;-84
2022/05/31 01:24:31;;;;;;;1.90;1.80;;;;;;;;;;2078187;28;20026;-86
2022/05/31 01:25:53;;;;;;;1.77;1.67;;;;;;;;;;2080163;28;20506;-85
2022/05/31 01:27:17;;;;;;;1.80;1.70;;;;;;;;;;2083949;28;20498;-86
2022/05/31 01:28:45;;;;;;;4.75;1.50;;;;;;;;;;2077569;28;20030;-85
2022/05/31 01:30:05;;;;;;;1.63;1.52;;;;;;;;;;2075393;28;20025;-85
2022/05/31 01:31:28;;;;;;;1.77;1.67;;;;;;;;;;2075411;28;20022;-85
2022/05/31 01:33:13;;;;;;;2.05;1.95;;;;;;;;;;2078210;28;20487;-85
2022/05/31 01:34:41;;;;;;;1.80;1.65;;;;;;;;;;2078645;28;20507;-83
2022/05/31 01:36:05;;;;;;;1.95;1.85;;;;;;;;;;2076432;28;20069;-85
2022/05/31 01:37:33;;;;;;;1.77;1.67;;;;;;;;;;2078982;28;20025;-85
2022/05/31 01:38:54;;;;;;;1.80;1.70;;;;;;;;;;2084426;28;20025;-85
2022/05/31 01:40:17;;;;;;;1.88;1.77;;;;;;;;;;2079678;28;20475;-85
2022/05/31 01:41:42;;;;;;;1.73;1.63;;;;;;;;;;2078864;28;20021;-85
2022/05/31 01:43:01;;;;;;;2.00;1.90;;;;;;;;;;2077913;28;20030;-85
2022/05/31 01:44:22;;;;;;;2.10;1.95;;;;;;;;;;2076677;28;20026;-85
2022/05/31 01:45:54;;;;;;;2.05;1.85;;;;;;;;;;2079342;28;20022;-85
2022/05/31 01:47:13;;;;;;;2.00;1.90;;;;;;;;;;2077154;28;20026;-81
2022/05/31 01:48:34;;;;;;;2.05;1.95;;;;;;;;;;2079003;28;20057;-85
2022/05/31 01:49:53;;;;;;;4.75;2.13;;;;;;;;;;2078827;28;20037;-84
2022/05/31 01:51:12;;;;;;;1.90;1.80;;;;;;;;;;2077930;28;20030;-84
2022/05/31 01:52:32;;;;;;;2.08;1.90;;;;;;;;;;2078463;28;20407;-85
2022/05/31 01:53:52;;;;;;;2.28;2.08;;;;;;;;;;2077559;28;20021;-81
2022/05/31 01:55:12;;;;;;;2.33;2.10;;;;;;;;;;2077540;28;20030;-85
2022/05/31 01:56:31;;;;;;;1.80;1.70;;;;;;;;;;2077050;28;20313;-84
2022/05/31 01:57:58;;;;;;;2.00;1.90;;;;;;;;;;2078566;28;20030;-81
2022/05/31 01:59:17;;;;;;;2.20;2.00;;;;;;;;;;2077756;28;20026;-85
2022/05/31 02:00:36;;;;;;;1.90;1.80;;;;;;;;;;2078111;28;20033;-84
2022/05/31 02:01:56;;;;;;;2.70;1.83;;;;;;;;;;2078665;28;20030;-84
2022/05/31 02:03:16;;;;;;;1.83;1.73;;;;;;;;;;2077964;28;20471;-85
2022/05/31 02:04:35;;;;;;;2.22;2.03;;;;;;;;;;2079858;28;20037;-85
2022/05/31 02:05:55;;;;;;;3.30;2.20;;;;;;;;;;2079475;28;20025;-84
2022/05/31 02:07:16;;;;;;;1.92;1.83;;;;;;;;;;2078358;28;20049;-85
2022/05/31 02:08:34;;;;;;;1.70;1.60;;;;;;;;;;2076808;28;20033;-84
2022/05/31 02:09:54;;;;;;;2.35;2.15;;;;;;;;;;2083464;28;20561;-85
2022/05/31 02:11:13;;;;;;;1.95;1.75;;;;;;;;;;2080676;28;20029;-81
2022/05/31 02:12:32;;;;;;;1.95;1.80;;;;;;;;;;2078456;28;20494;-85
2022/05/31 02:13:51;;;;;;;2.47;1.83;;;;;;;;;;2078682;28;20483;-85
2022/05/31 02:15:10;;;;;;;2.10;1.90;;;;;;;;;;2077881;28;20100;-84
2022/05/31 02:16:28;;;;;;;2.55;1.77;;;;;;;;;;2079319;28;20029;-84
2022/05/31 02:17:47;;;;;;;1.90;1.80;;;;;;;;;;2078684;28;20061;-83
2022/05/31 02:19:18;;;;;;;2.25;2.05;;;;;;;;;;2078377;28;20050;-84
2022/05/31 02:20:36;;;;;;;2.30;2.15;;;;;;;;;;2081973;28;20045;-84
2022/05/31 02:21:57;;;;;;;2.10;2.00;;;;;;;;;;2082503;28;20116;-86
2022/05/31 02:23:16;;;;;;;1.80;1.70;;;;;;;;;;2081642;28;20491;-85
2022/05/31 02:24:35;;;;;;;2.40;2.00;;;;;;;;;;2085104;28;20033;-85
2022/05/31 02:25:54;;;;;;;2.20;2.00;;;;;;;;;;2080223;28;20014;-85
2022/05/31 02:27:16;;;;;;;2.17;1.98;;;;;;;;;;2083903;28;20084;-84
2022/05/31 02:28:35;;;;;;;1.95;1.80;;;;;;;;;;2080909;28;20045;-84
2022/05/31 02:29:54;;;;;;;1.75;1.65;;;;;;;;;;2077936;28;20037;-86
2022/05/31 02:31:14;;;;;;;2.88;2.00;;;;;;;;;;2077701;28;20041;-84
2022/05/31 02:32:33;;;;;;;1.85;1.75;;;;;;;;;;2082898;28;20029;-84
2022/05/31 02:33:52;;;;;;;1.92;1.83;;;;;;;;;;2081600;28;20029;-85
2022/05/31 02:35:11;;;;;;;1.67;1.58;;;;;;;;;;2078935;28;20044;-84
2022/05/31 02:36:30;;;;;;;2.22;2.13;;;;;;;;;;2078643;28;20475;-84
2022/05/31 02:37:49;;;;;;;2.08;1.98;;;;;;;;;;2078405;28;20508;-85
2022/05/31 02:39:08;;;;;;;1.88;1.77;;;;;;;;;;2077942;28;20021;-84
2022/05/31 02:40:28;;;;;;;2.30;2.20;;;;;;;;;;2085893;28;20033;-85
2022/05/31 02:41:47;;;;;;;2.05;1.85;;;;;;;;;;2079739;28;20443;-85
2022/05/31 02:43:07;;;;;;;2.22;2.00;;;;;;;;;;2077814;28;20443;-86
2022/05/31 02:44:26;;;;;;;1.92;1.83;;;;;;;;;;2077730;28;20026;-84
2022/05/31 02:45:45;;;;;;;2.47;2.10;;;;;;;;;;2085667;28;20025;-86
2022/05/31 02:47:04;;;;;;;4.72;2.60;;;;;;;;;;2078733;28;20574;-86
2022/05/31 02:48:24;;;;;;;2.42;2.22;;;;;;;;;;2076614;28;20037;-84
2022/05/31 02:49:43;;;;;;;2.45;2.30;;;;;;;;;;2075891;28;20021;-85
2022/05/31 02:51:02;;;;;;;2.95;2.10;;;;;;;;;;2077933;28;20411;-85
2022/05/31 02:52:22;;;;;;;2.88;2.58;;;;;;;;;;2079151;28;20029;-86
2022/05/31 02:53:41;;;;;;;3.00;2.65;;;;;;;;;;2078664;28;20438;-87
2022/05/31 02:55:00;;;;;;;2.10;2.00;;;;;;;;;;2075601;28;20038;-85
2022/05/31 02:56:19;;;;;;;2.05;1.95;;;;;;;;;;2079870;28;20026;-81
2022/05/31 02:57:38;;;;;;;2.70;2.05;;;;;;;;;;2079120;28;20029;-85
2022/05/31 02:58:57;;;;;;;2.05;1.95;;;;;;;;;;2077736;28;20022;-85
2022/05/31 03:00:16;;;;;;;2.83;2.30;;;;;;;;;;2073614;28;20022;-85
2022/05/31 03:01:36;;;;;;;2.78;2.20;;;;;;;;;;2076954;28;20065;-85
2022/05/31 03:02:55;;;;;;;2.53;2.40;;;;;;;;;;2079068;28;20022;-84
2022/05/31 03:04:14;;;;;;;3.40;2.65;;;;;;;;;;2074824;28;20910;-85
2022/05/31 03:05:33;;;;;;;1.83;1.73;;;;;;;;;;2077332;28;20025;-84
2022/05/31 03:06:52;;;;;;;2.97;2.47;;;;;;;;;;2078325;28;20029;-84
2022/05/31 03:08:11;;;;;;;2.08;1.98;;;;;;;;;;2077570;28;20490;-85
2022/05/31 03:09:31;;;;;;;2.78;2.15;;;;;;;;;;2077331;28;20093;-83
2022/05/31 03:10:51;;;;;;;2.83;2.35;;;;;;;;;;2085626;28;20127;-84
2022/05/31 03:12:13;;;;;;;2.30;2.20;;;;;;;;;;2079211;28;20026;-84
2022/05/31 03:13:32;;;;;;;2.92;2.33;;;;;;;;;;2085418;28;20041;-83
2022/05/31 03:14:56;;;;;;;2.60;2.40;;;;;;;;;;2080090;28;20033;-84
2022/05/31 03:16:17;;;;;;;2.75;2.55;;;;;;;;;;2085900;28;20037;-84
2022/05/31 03:17:37;;;;;;;3.90;2.30;;;;;;;;;;2073106;28;20543;-83
2022/05/31 03:19:01;;;;;;;7.65;3.35;;;;;;;;;;2075500;28;20041;-84
2022/05/31 03:20:23;;;;;;;4.10;3.35;;;;;;;;;;2078069;28;20120;-86
2022/05/31 03:21:44;;;;;;;4.97;4.00;;;;;;;;;;2079386;28;20108;-84
2022/05/31 03:23:07;;;;;;;8.55;4.10;;;;;;;;;;2077748;28;20422;-83
2022/05/31 03:24:29;;;;;;;4.20;3.88;;;;;;;;;;2076300;28;20026;-84
2022/05/31 03:25:49;;;;;;;4.72;4.10;;;;;;;;;;2077701;28;20379;-83
2022/05/31 03:27:09;;;;;;;4.45;4.07;;;;;;;;;;2079433;28;20033;-84
2022/05/31 03:28:28;;;;;;;4.50;3.58;;;;;;;;;;2078343;28;20077;-84
2022/05/31 03:29:48;;;;;;;3.88;3.58;;;;;;;;;;2077731;28;20030;-84
2022/05/31 03:31:08;;;;;;;4.13;3.83;;;;;;;;;;2079092;28;20029;-84
2022/05/31 03:32:27;;;;;;;4.90;4.50;;;;;;;;;;2081778;28;20029;-84
2022/05/31 03:33:46;;;;;;;4.82;4.35;;;;;;;;;;2080957;28;20037;-84
2022/05/31 03:35:05;;;;;;;5.40;4.68;;;;;;;;;;2085086;28;20029;-83
2022/05/31 03:36:24;;;;;;;5.15;4.65;;;;;;;;;;2078234;28;20030;-84
2022/05/31 03:37:43;;;;;;;5.15;4.75;;;;;;;;;;2077427;28;20046;-85
2022/05/31 03:39:02;;;;;;;5.88;5.32;;;;;;;;;;2084787;28;20021;-83
2022/05/31 03:41:59;;;;;;;6.43;5.82;;;;;;;;;;2078124;28;20026;-84
2022/05/31 03:43:18;;;;;;;5.70;5.30;;;;;;;;;;2077896;28;20393;-85
2022/05/31 03:44:37;;;;;;;6.28;5.70;;;;;;;;;;2078808;28;20026;-83
2022/05/31 03:45:56;;;;;;;6.65;6.15;;;;;;;;;;2077108;28;20112;-82
2022/05/31 03:47:15;;;;;;;6.30;5.78;;;;;;;;;;2074152;28;20121;-84
2022/05/31 03:48:34;;;;;;;6.57;6.07;;;;;;;;;;2076502;28;20038;-83
2022/05/31 03:49:53;;;;;;;6.43;5.82;;;;;;;;;;2075878;28;20025;-82
2022/05/31 03:51:12;;;;;;;6.88;5.78;;;;;;;;;;2080616;28;20029;-84
2022/05/31 03:52:31;;;;;;;6.45;5.97;;;;;;;;;;2073112;28;20037;-84
2022/05/31 03:53:50;;;;;;;7.35;6.75;;;;;;;;;;2077378;28;20061;-83
2022/05/31 03:55:09;;;;;;;7.18;6.45;;;;;;;;;;2080499;28;20032;-82
2022/05/31 03:56:28;;;;;;;6.25;5.75;;;;;;;;;;2084371;28;20398;-84
2022/05/31 03:57:47;;;;;;;6.95;6.45;;;;;;;;;;2079600;28;20037;-84
2022/05/31 03:59:06;;;;;;;7.13;6.43;;;;;;;;;;2077902;28;20541;-84
2022/05/31 04:00:25;;;;;;;7.93;7.28;;;;;;;;;;2076214;28;20038;-83
2022/05/31 04:01:44;;;;;;;7.25;6.72;;;;;;;;;;2077718;28;20088;-83
2022/05/31 04:03:03;;;;;;;7.68;7.03;;;;;;;;;;2075651;28;20025;-84
2022/05/31 04:04:22;;;;;;;7.47;6.88;;;;;;;;;;2077693;28;20461;-84
2022/05/31 04:05:42;;;;;;;7.85;7.15;;;;;;;;;;2079383;28;20025;-85
2022/05/31 04:07:03;;;;;;;7.45;6.70;;;;;;;;;;2077140;28;20100;-84
2022/05/31 04:08:22;;;;;;;7.80;7.20;;;;;;;;;;2084642;28;20026;-84
2022/05/31 04:09:41;;;;;;;7.90;7.20;;;;;;;;;;2080338;28;20029;-83
2022/05/31 04:11:00;;;;;;;8.20;7.50;;;;;;;;;;2075923;28;20025;-84
2022/05/31 04:12:19;;;;;;;6.43;6.03;;;;;;;;;;2078807;28;20065;-83
2022/05/31 04:13:38;;;;;;;8.20;7.60;;;;;;;;;;2074407;28;20049;-84
2022/05/31 04:14:57;;;;;;;8.00;7.22;;;;;;;;;;2076137;28;20037;-84
2022/05/31 04:16:17;;;;;;;8.65;7.88;;;;;;;;;;2077122;28;20034;-84
2022/05/31 04:17:37;;;;;;;9.55;8.75;;;;;;;;;;2079461;28;20037;-84
2022/05/31 04:18:56;;;;;;;9.98;9.07;;;;;;;;;;2074586;28;20049;-84
2022/05/31 04:20:15;;;;;;;9.18;8.38;;;;;;;;;;2074911;28;20025;-85
2022/05/31 04:21:34;;;;;;;10.07;8.68;;;;;;;;;;2082296;28;21506;-85
2022/05/31 04:23:57;;;;;;;9.27;8.48;;;;;;;;;;2083181;28;20123;-84
2022/05/31 04:24:32;;;;;;;11.20;9.45;;;;;;;;;;2078214;28;20037;-83
2022/05/31 04:26:01;;;;;;;9.88;8.98;;;;;;;;;;2077427;28;20030;-83
2022/05/31 04:27:21;;;;;;;9.60;8.75;;;;;;;;;;2085544;28;20395;-84
2022/05/31 04:28:40;;;;;;;10.23;9.32;;;;;;;;;;2079527;28;20030;-83
2022/05/31 04:29:59;;;;;;;8.93;8.18;;;;;;;;;;2078038;28;20030;-85
2022/05/31 04:31:18;;;;;;;10.90;9.90;;;;;;;;;;2075917;28;20022;-85
2022/05/31 04:32:36;;;;;;;10.65;9.68;;;;;;;;;;2087972;28;20025;-83
2022/05/31 04:33:55;;;;;;;10.02;9.13;;;;;;;;;;2074188;28;20279;-84
2022/05/31 04:35:14;;;;;;;11.60;10.50;;;;;;;;;;2076894;28;20418;-84
2022/05/31 04:36:33;;;;;;;11.52;10.35;;;;;;;;;;2079491;28;20490;-84
2022/05/31 04:37:52;;;;;;;11.23;10.10;;;;;;;;;;2083153;28;20511;-83
2022/05/31 04:39:10;;;;;;;11.05;10.05;;;;;;;;;;2078999;28;20459;-84
2022/05/31 04:40:29;;;;;;;10.88;9.82;;;;;;;;;;2078843;28;20117;-83
2022/05/31 04:41:48;;;;;;;10.13;9.18;;;;;;;;;;2078386;28;20023;-83
2022/05/31 04:43:07;;;;;;;11.45;10.32;;;;;;;;;;2079414;28;20109;-83
2022/05/31 04:44:26;;;;;;;11.07;10.13;;;;;;;;;;2078411;28;20062;-82
2022/05/31 04:45:45;;;;;;;10.30;9.43;;;;;;;;;;2076990;28;20019;-82
2022/05/31 04:47:05;;;;;;;10.65;9.65;;;;;;;;;;2079903;28;20017;-82
2022/05/31 04:48:24;;;;;;;11.27;10.18;;;;;;;;;;2075164;28;20620;-82
2022/05/31 04:49:43;;;;;;;11.85;10.77;;;;;;;;;;2078221;28;20038;-83
2022/05/31 04:51:03;;;;;;;10.38;9.45;;;;;;;;;;2077195;28;20037;-82
2022/05/31 04:52:21;;;;;;;10.48;9.52;;;;;;;;;;2076159;28;20033;-82
2022/05/31 04:53:41;;;;;;;11.68;10.57;;;;;;;;;;2079617;28;20041;-82
2022/05/31 04:55:00;;;;;;;11.68;10.45;;;;;;;;;;2076098;28;20033;-83
2022/05/31 04:56:20;;;;;;;10.63;9.65;;;;;;;;;;2079505;28;20483;-82
2022/05/31 04:57:39;;;;;;;12.32;11.13;;;;;;;;;;2076279;28;20034;-80
2022/05/31 04:58:58;;;;;;;11.43;10.50;;;;;;;;;;2079490;28;20037;-81
2022/05/31 05:00:17;;;;;;;11.02;10.00;;;;;;;;;;2077699;28;20450;-83
2022/05/31 05:01:36;;;;;;;11.27;10.18;;;;;;;;;;2076928;28;20414;-83
2022/05/31 05:02:56;;;;;;;11.30;10.30;;;;;;;;;;2083153;28;20475;-81
2022/05/31 05:04:15;;;;;;;11.90;10.80;;;;;;;;;;2080326;28;20441;-84
2022/05/31 05:05:34;;;;;;;12.07;10.95;;;;;;;;;;2077791;28;20022;-81
2022/05/31 05:06:52;;;;;;;12.65;11.35;;;;;;;;;;2078232;28;20438;-83
2022/05/31 05:08:11;;;;;;;14.23;12.77;;;;;;;;;;2077437;28;20033;-81
2022/05/31 05:09:30;;;;;;;12.98;11.63;;;;;;;;;;2075672;28;20490;-82
2022/05/31 05:10:49;;;;;;;12.40;11.13;;;;;;;;;;2080933;28;20041;-81
2022/05/31 05:12:08;;;;;;;13.05;11.18;;;;;;;;;;2081790;28;20029;-83
2022/05/31 05:13:27;;;;;;;12.48;11.25;;;;;;;;;;2083450;28;20033;-83
2022/05/31 05:14:47;;;;;;;13.57;11.73;;;;;;;;;;2085387;28;20049;-83
2022/05/31 05:16:07;;;;;;;12.48;11.30;;;;;;;;;;2078364;28;20041;-81
2022/05/31 05:17:26;;;;;;;13.75;12.10;;;;;;;;;;2078708;28;20033;-80
2022/05/31 05:18:45;;;;;;;12.18;10.85;;;;;;;;;;2076186;28;20050;-80
2022/05/31 05:20:04;;;;;;;12.82;11.52;;;;;;;;;;2080260;28;20032;-80
2022/05/31 05:21:23;;;;;;;15.15;12.45;;;;;;;;;;2080818;28;20124;-80
2022/05/31 05:22:42;;;;;;;13.23;12.10;;;;;;;;;;2080200;28;20030;-81
2022/05/31 05:24:00;;;;;;;14.15;12.25;;;;;;;;;;2078318;28;20547;-81
2022/05/31 05:25:19;;;;;;;13.68;12.23;;;;;;;;;;2078532;28;20029;-80
2022/05/31 05:26:38;;;;;;;14.40;12.90;;;;;;;;;;2077893;28;20021;-80
2022/05/31 05:27:57;;;;;;;13.73;11.90;;;;;;;;;;2077466;28;20025;-80
2022/05/31 05:30:55;;;;;;;12.55;11.38;;;;;;;;;;2078601;28;20029;-81
2022/05/31 05:32:14;;;;;;;13.85;12.15;;;;;;;;;;2078541;28;20033;-79
2022/05/31 05:33:33;;;;;;;13.88;12.57;;;;;;;;;;2078590;28;20030;-77
2022/05/31 05:34:53;;;;;;;12.98;11.73;;;;;;;;;;2080609;28;20497;-77
2022/05/31 05:36:12;;;;;;;13.43;12.07;;;;;;;;;;2078902;28;20033;-76
2022/05/31 05:37:31;;;;;;;13.50;12.15;;;;;;;;;;2078398;28;20864;-76
2022/05/31 05:38:50;;;;;;;13.93;12.55;;;;;;;;;;2078552;28;20030;-79
2022/05/31 05:40:09;;;;;;;12.57;11.27;;;;;;;;;;2079427;28;20453;-78
2022/05/31 05:41:29;;;;;;;14.48;12.63;;;;;;;;;;2078063;28;20029;-79
2022/05/31 05:42:48;;;;;;;13.27;11.98;;;;;;;;;;2079292;28;20026;-79
2022/05/31 05:44:08;;;;;;;14.13;12.73;;;;;;;;;;2076913;28;20021;-79
2022/05/31 05:45:27;;;;;;;16.63;12.57;;;;;;;;;;2078391;28;20030;-79
2022/05/31 05:46:46;;;;;;;17.55;13.40;;;;;;;;;;2079152;28;20204;-79
2022/05/31 05:48:05;;;;;;;14.30;12.90;;;;;;;;;;2079344;28;20391;-79
2022/05/31 05:49:24;;;;;;;15.65;13.02;;;;;;;;;;2072376;28;20017;-78
2022/05/31 05:50:43;;;;;;;14.30;12.80;;;;;;;;;;2077492;28;20038;-78
2022/05/31 05:52:03;;;;;;;13.38;12.13;;;;;;;;;;2078048;28;20033;-78
2022/05/31 05:53:22;;;;;;;16.30;13.35;;;;;;;;;;2074223;28;20391;-78
2022/05/31 05:54:41;;;;;;;14.20;12.73;;;;;;;;;;2076116;28;20534;-78
2022/05/31 05:56:00;;;;;;;14.68;13.18;;;;;;;;;;2077746;28;20037;-77
2022/05/31 05:57:19;;;;;;;15.35;13.73;;;;;;;;;;2077938;28;20414;-77
2022/05/31 05:58:38;;;;;;;16.48;13.55;;;;;;;;;;2078237;28;20026;-78
2022/05/31 05:59:57;;;;;;;17.17;13.85;;;;;;;;;;2076794;28;20064;-78
2022/05/31 06:01:37;;;;;;;19.02;13.27;;;;;;;;;;2077864;28;20037;-78
2022/05/31 06:03:25;;;;;;;18.63;13.10;;;;;;;;;;2078119;28;20062;-78
2022/05/31 06:04:46;;;;;;;15.40;13.40;;;;;;;;;;2076447;28;20034;-78
2022/05/31 06:06:07;;;;;;;14.70;12.77;;;;;;;;;;2078733;28;20387;-78
2022/05/31 06:07:42;;;;;;;14.18;12.48;;;;;;;;;;2085676;28;20415;-78
2022/05/31 06:09:08;;;;;;;12.73;11.43;;;;;;;;;;2080982;28;20025;-78
2022/05/31 06:10:50;;;;;;;16.75;12.82;;;;;;;;;;2077826;28;20026;-78
2022/05/31 06:12:17;;;;;;;14.48;12.20;;;;;;;;;;2077602;28;20030;-78
2022/05/31 06:13:39;;;;;;;12.85;11.55;;;;;;;;;;2077962;28;20037;-78
2022/05/31 06:15:01;;;;;;;12.27;11.10;;;;;;;;;;2077168;28;20032;-78
2022/05/31 06:16:22;;;;;;;11.82;10.63;;;;;;;;;;2078266;28;20022;-78
2022/05/31 06:17:44;;;;;;;12.82;11.18;;;;;;;;;;2077736;28;20018;-78
2022/05/31 06:19:06;;;;;;;12.00;10.80;;;;;;;;;;2079407;28;20187;-79
2022/05/31 06:20:25;;;;;;;11.65;10.52;;;;;;;;;;2077428;28;20029;-78
2022/05/31 06:21:45;;;;;;;10.88;9.88;;;;;;;;;;2080938;28;20450;-78
2022/05/31 06:23:04;;;;;;;11.73;10.52;;;;;;;;;;2077363;28;20061;-78
2022/05/31 06:24:27;;;;;;;10.88;9.82;;;;;;;;;;2078524;28;20053;-78
2022/05/31 06:25:45;;;;;;;11.38;10.25;;;;;;;;;;2081048;28;20076;-79
2022/05/31 06:27:04;;;;;;;13.93;12.52;;;;;;;;;;2084552;28;20034;-77
2022/05/31 06:28:23;;;;;;;12.05;10.68;;;;;;;;;;2079265;28;20528;-76
2022/05/31 06:29:42;;;;;;;11.90;9.65;;;;;;;;;;2079848;28;20038;-76
2022/05/31 06:31:01;;;;;;;11.23;10.32;;;;;;;;;;2078103;28;20030;-76
2022/05/31 06:32:20;;;;;;;10.93;9.85;;;;;;;;;;2081062;28;20041;-76
2022/05/31 06:33:39;;;;;;;12.02;10.82;;;;;;;;;;2083682;28;20092;-77
2022/05/31 06:34:58;;;;;;;11.43;10.30;;;;;;;;;;2078985;28;20037;-76
2022/05/31 06:36:17;;;;;;;11.50;10.48;;;;;;;;;;2076719;28;20499;-76
2022/05/31 06:37:36;;;;;;;15.63;10.50;;;;;;;;;;2074117;28;20112;-77
2022/05/31 06:38:55;;;;;;;22.60;12.85;;;;;;;;;;2077847;28;20029;-77
2022/05/31 06:40:15;;;;;;;21.58;10.80;;;;;;;;;;2077082;28;20030;-77
2022/05/31 06:41:35;;;;;;;41.03;12.85;;;;;;;;;;2078223;28;20034;-76
2022/05/31 06:42:54;;;;;;;18.20;10.15;;;;;;;;;;2081995;28;20025;-77
2022/05/31 06:44:13;;;;;;;9.88;8.93;;;;;;;;;;2080945;28;20033;-77
2022/05/31 06:45:32;;;;;;;12.52;9.80;;;;;;;;;;2076716;28;20034;-77
2022/05/31 06:46:51;;;;;;;11.30;10.10;;;;;;;;;;2077593;28;20090;-77
2022/05/31 06:48:13;;;;;;;12.88;10.05;;;;;;;;;;2078034;28;20117;-76
2022/05/31 06:49:33;;;;;;;10.18;9.27;;;;;;;;;;2078506;28;20029;-77
2022/05/31 06:50:52;;;;;;;10.55;9.70;;;;;;;;;;2077950;28;20047;-77
2022/05/31 06:57:08;;;;;;;11.73;10.63;;;;;;;;;;2078283;28;20030;-77
2022/05/31 06:58:27;;;;;;;15.25;10.75;;;;;;;;;;2077653;28;20041;-77
2022/05/31 06:59:45;;;;;;;14.05;10.73;;;;;;;;;;2076314;28;20522;-76
2022/05/31 07:01:04;;;;;;;11.98;10.80;;;;;;;;;;2072816;28;20033;-77
2022/05/31 07:02:23;;;;;;;10.75;9.75;;;;;;;;;;2076828;28;20029;-77
2022/05/31 07:03:42;;;;;;;10.68;9.77;;;;;;;;;;2081300;28;20056;-77
2022/05/31 07:05:01;;;;;;;10.25;9.45;;;;;;;;;;2078882;28;20026;-77
2022/05/31 07:06:20;;;;;;;9.48;8.65;;;;;;;;;;2076970;28;20501;-78
2022/05/31 07:07:40;;;;;;;9.40;8.60;;;;;;;;;;2080150;28;20064;-77
2022/05/31 07:08:59;;;;;;;10.57;9.77;;;;;;;;;;2078964;28;20034;-77
2022/05/31 07:10:18;;;;;;;11.57;10.30;;;;;;;;;;2078316;28;20030;-77
2022/05/31 07:11:38;;;;;;;10.48;9.68;;;;;;;;;;2075678;28;20038;-78
2022/05/31 07:12:57;;;;;;;9.80;8.93;;;;;;;;;;2084374;28;20033;-78
2022/05/31 07:14:16;;;;;;;9.82;8.82;;;;;;;;;;2081200;28;20108;-77
2022/05/31 07:15:35;;;;;;;8.73;8.02;;;;;;;;;;2075978;28;20030;-78
2022/05/31 07:16:54;;;;;;;8.73;8.02;;;;;;;;;;2088155;28;20029;-78
2022/05/31 07:18:14;;;;;;;9.05;8.27;;;;;;;;;;2081359;28;20034;-78
2022/05/31 07:19:34;;;;;;;8.50;7.80;;;;;;;;;;2076978;28;20030;-79
2022/05/31 07:20:53;;;;;;;9.82;9.00;;;;;;;;;;2076436;28;20065;-77
2022/05/31 07:22:11;;;;;;;9.15;8.35;;;;;;;;;;2080001;28;20033;-77
2022/05/31 07:23:30;;;;;;;8.80;8.20;;;;;;;;;;2078704;28;20070;-78
2022/05/31 07:24:49;;;;;;;8.50;7.80;;;;;;;;;;2078061;28;20030;-78
2022/05/31 07:26:09;;;;;;;8.57;7.90;;;;;;;;;;2079002;28;20026;-75
2022/05/31 07:27:28;;;;;;;9.20;8.07;;;;;;;;;;2084212;28;20028;-76
2022/05/31 07:28:47;;;;;;;8.48;7.43;;;;;;;;;;2079857;28;20025;-77
2022/05/31 07:30:07;;;;;;;8.05;7.45;;;;;;;;;;2077790;28;20030;-77
2022/05/31 07:31:26;;;;;;;7.22;6.63;;;;;;;;;;2076559;28;20033;-77
2022/05/31 07:32:45;;;;;;;8.90;8.10;;;;;;;;;;2077658;28;20057;-76
2022/05/31 07:34:04;;;;;;;8.13;7.47;;;;;;;;;;2077790;28;20026;-76
2022/05/31 07:35:23;;;;;;;8.10;7.30;;;;;;;;;;2085257;28;20119;-77
2022/05/31 07:36:43;;;;;;;8.60;7.90;;;;;;;;;;2080266;28;20034;-76
2022/05/31 07:38:01;;;;;;;10.82;7.75;;;;;;;;;;2076600;28;20043;-77
2022/05/31 07:39:21;;;;;;;10.00;7.57;;;;;;;;;;2077282;28;20026;-76
2022/05/31 07:40:40;;;;;;;8.75;7.82;;;;;;;;;;2076719;28;20527;-77
2022/05/31 07:41:59;;;;;;;9.00;6.93;;;;;;;;;;2076190;28;20580;-77
2022/05/31 07:43:18;;;;;;;11.45;7.35;;;;;;;;;;2077111;28;20034;-77
2022/05/31 07:44:37;;;;;;;9.60;7.18;;;;;;;;;;2076112;28;20029;-77
2022/05/31 07:46:05;;;;;;;7.63;6.93;;;;;;;;;;2076446;28;20483;-78
2022/05/31 07:47:24;;;;;;;7.97;7.38;;;;;;;;;;2076211;28;20041;-78
2022/05/31 07:48:43;;;;;;;7.55;6.85;;;;;;;;;;2077043;28;20336;-78
2022/05/31 07:50:02;;;;;;;6.90;6.22;;;;;;;;;;2080393;28;20037;-77
2022/05/31 07:51:21;;;;;;;8.05;7.35;;;;;;;;;;2074246;28;20060;-77
2022/05/31 07:52:40;;;;;;;8.77;7.97;;;;;;;;;;2081481;28;20033;-78
2022/05/31 07:54:00;;;;;;;7.07;6.68;;;;;;;;;;2079543;28;20033;-78
2022/05/31 07:55:18;;;;;;;8.23;7.53;;;;;;;;;;2077074;28;20461;-78
2022/05/31 07:56:37;;;;;;;7.60;6.95;;;;;;;;;;2075337;28;20034;-77
2022/05/31 07:59:34;;;;;;;8.68;8.00;;;;;;;;;;2077155;28;20033;-77
2022/05/31 08:00:54;;;;;;;10.20;8.93;;;;;;;;;;2076312;28;20034;-77
2022/05/31 08:02:12;;;;;;;13.57;8.70;;;;;;;;;;2077106;28;20038;-77
2022/05/31 08:03:32;;;;;;;10.63;9.52;;;;;;;;;;2077223;28;20045;-77
2022/05/31 08:04:51;;;;;;;10.35;9.07;;;;;;;;;;2087284;28;20025;-77
2022/05/31 08:06:11;;;;;;;10.90;9.63;;;;;;;;;;2080910;28;20510;-77
2022/05/31 08:07:30;;;;;;;9.23;8.52;;;;;;;;;;2074240;28;20045;-77